sensor_id;sensor_type;location;lat;lon;timestamp;temperature;humidity
25825;DHT22;13658;44.534;18.694;2024-01-30T00:00:22;-1.90;99.90
25825;DHT22;13658;44.534;18.694;2024-01-30T00:02:48;-2.00;99.90
25825;DHT22;13658;44.534;18.694;2024-01-30T00:05:16;-2.10;99.90
25825;DHT22;13658;44.534;18.694;2024-01-30T00:07:43;-2.20;99.90
25825;DHT22;13658;44.534;18.694;2024-01-30T00:10:12;-2.30;99.90
25825;DHT22;13658;44.534;18.694;2024-01-30T00:12:38;-2.30;99.90
25825;DHT22;13658;44.534;18.694;2024-01-30T00:15:04;-2.30;99.90
25825;DHT22;13658;44.534;18.694;2024-01-30T00:17:30;-2.40;99.90
25825;DHT22;13658;44.534;18.694;2024-01-30T00:19:56;-2.30;99.90
25825;DHT22;13658;44.534;18.694;2024-01-30T00:22:25;-2.40;99.90
25825;DHT22;13658;44.534;18.694;2024-01-30T00:24:51;-2.40;99.90
25825;DHT22;13658;44.534;18.694;2024-01-30T00:27:20;-2.40;99.90
25825;DHT22;13658;44.534;18.694;2024-01-30T00:29:49;-2.40;99.90
25825;DHT22;13658;44.534;18.694;2024-01-30T00:32:15;-2.30;99.90
25825;DHT22;13658;44.534;18.694;2024-01-30T00:34:44;-2.40;99.90
25825;DHT22;13658;44.534;18.694;2024-01-30T00:37:12;-2.40;99.90
25825;DHT22;13658;44.534;18.694;2024-01-30T00:39:45;-2.50;99.90
25825;DHT22;13658;44.534;18.694;2024-01-30T00:42:14;-2.50;99.90
25825;DHT22;13658;44.534;18.694;2024-01-30T00:44:43;-2.40;99.90
25825;DHT22;13658;44.534;18.694;2024-01-30T00:47:15;-2.40;99.90
25825;DHT22;13658;44.534;18.694;2024-01-30T00:49:43;-2.30;99.90
25825;DHT22;13658;44.534;18.694;2024-01-30T00:52:12;-2.30;99.90
25825;DHT22;13658;44.534;18.694;2024-01-30T00:54:38;-2.30;99.90
25825;DHT22;13658;44.534;18.694;2024-01-30T00:57:07;-2.20;99.90
25825;DHT22;13658;44.534;18.694;2024-01-30T00:59:36;-2.20;99.90
25825;DHT22;13658;44.534;18.694;2024-01-30T01:02:05;-2.20;99.90
25825;DHT22;13658;44.534;18.694;2024-01-30T01:04:37;-2.20;99.90
25825;DHT22;13658;44.534;18.694;2024-01-30T01:07:06;-2.30;99.90
25825;DHT22;13658;44.534;18.694;2024-01-30T01:09:35;-2.30;99.90
25825;DHT22;13658;44.534;18.694;2024-01-30T01:12:04;-2.30;99.90
25825;DHT22;13658;44.534;18.694;2024-01-30T01:14:33;-2.60;99.90
25825;DHT22;13658;44.534;18.694;2024-01-30T01:16:59;-2.70;99.90
25825;DHT22;13658;44.534;18.694;2024-01-30T01:19:28;-2.80;99.90
25825;DHT22;13658;44.534;18.694;2024-01-30T01:21:57;-2.80;99.90
25825;DHT22;13658;44.534;18.694;2024-01-30T01:24:26;-2.80;99.90
25825;DHT22;13658;44.534;18.694;2024-01-30T01:26:55;-2.90;99.90
25825;DHT22;13658;44.534;18.694;2024-01-30T01:29:25;-2.90;99.90
25825;DHT22;13658;44.534;18.694;2024-01-30T01:32:00;-2.90;99.90
25825;DHT22;13658;44.534;18.694;2024-01-30T01:34:29;-3.00;99.90
25825;DHT22;13658;44.534;18.694;2024-01-30T01:36:58;-3.00;99.90
25825;DHT22;13658;44.534;18.694;2024-01-30T01:39:27;-3.10;99.90
25825;DHT22;13658;44.534;18.694;2024-01-30T01:41:59;-3.00;99.90
25825;DHT22;13658;44.534;18.694;2024-01-30T01:44:25;-3.00;99.90
25825;DHT22;13658;44.534;18.694;2024-01-30T01:46:51;-3.00;99.90
25825;DHT22;13658;44.534;18.694;2024-01-30T01:49:18;-2.90;99.90
25825;DHT22;13658;44.534;18.694;2024-01-30T01:51:48;-3.00;99.90
25825;DHT22;13658;44.534;18.694;2024-01-30T01:54:33;-3.00;99.90
25825;DHT22;13658;44.534;18.694;2024-01-30T01:57:03;-3.00;99.90
25825;DHT22;13658;44.534;18.694;2024-01-30T01:59:32;-3.10;99.90
25825;DHT22;13658;44.534;18.694;2024-01-30T02:02:02;-3.20;99.90
25825;DHT22;13658;44.534;18.694;2024-01-30T02:04:45;-3.10;99.90
25825;DHT22;13658;44.534;18.694;2024-01-30T02:07:11;-3.20;99.90
25825;DHT22;13658;44.534;18.694;2024-01-30T02:09:40;-3.30;99.90
25825;DHT22;13658;44.534;18.694;2024-01-30T02:12:09;-3.20;99.90
25825;DHT22;13658;44.534;18.694;2024-01-30T02:14:45;-3.30;99.90
25825;DHT22;13658;44.534;18.694;2024-01-30T02:17:12;-3.40;99.90
25825;DHT22;13658;44.534;18.694;2024-01-30T02:19:41;-3.30;99.90
25825;DHT22;13658;44.534;18.694;2024-01-30T02:22:11;-3.20;99.90
25825;DHT22;13658;44.534;18.694;2024-01-30T02:24:40;-3.10;99.90
25825;DHT22;13658;44.534;18.694;2024-01-30T02:27:15;-3.00;99.90
25825;DHT22;13658;44.534;18.694;2024-01-30T02:29:45;-3.10;99.90
25825;DHT22;13658;44.534;18.694;2024-01-30T02:32:11;-3.20;99.90
25825;DHT22;13658;44.534;18.694;2024-01-30T02:34:40;-3.20;99.90
25825;DHT22;13658;44.534;18.694;2024-01-30T02:37:09;-3.20;99.90
25825;DHT22;13658;44.534;18.694;2024-01-30T02:39:38;-3.10;99.90
25825;DHT22;13658;44.534;18.694;2024-01-30T02:42:07;-3.20;99.90
25825;DHT22;13658;44.534;18.694;2024-01-30T02:44:36;-3.20;99.90
25825;DHT22;13658;44.534;18.694;2024-01-30T02:47:05;-3.30;99.90
25825;DHT22;13658;44.534;18.694;2024-01-30T02:49:33;-3.20;99.90
25825;DHT22;13658;44.534;18.694;2024-01-30T02:52:02;-3.20;99.90
25825;DHT22;13658;44.534;18.694;2024-01-30T02:54:31;-3.10;99.90
25825;DHT22;13658;44.534;18.694;2024-01-30T02:57:00;-3.10;99.90
25825;DHT22;13658;44.534;18.694;2024-01-30T02:59:29;-3.10;99.90
25825;DHT22;13658;44.534;18.694;2024-01-30T03:01:58;-3.10;99.90
25825;DHT22;13658;44.534;18.694;2024-01-30T03:04:27;-3.10;99.90
25825;DHT22;13658;44.534;18.694;2024-01-30T03:06:55;-3.20;99.90
25825;DHT22;13658;44.534;18.694;2024-01-30T03:09:24;-3.20;99.90
25825;DHT22;13658;44.534;18.694;2024-01-30T03:11:53;-3.20;99.90
25825;DHT22;13658;44.534;18.694;2024-01-30T03:14:22;-3.30;99.90
25825;DHT22;13658;44.534;18.694;2024-01-30T03:16:51;-3.50;99.90
25825;DHT22;13658;44.534;18.694;2024-01-30T03:19:20;-3.60;99.90
25825;DHT22;13658;44.534;18.694;2024-01-30T03:21:49;-3.60;99.90
25825;DHT22;13658;44.534;18.694;2024-01-30T03:24:30;-3.80;99.90
25825;DHT22;13658;44.534;18.694;2024-01-30T03:27:05;-3.80;99.90
25825;DHT22;13658;44.534;18.694;2024-01-30T03:29:40;-3.70;99.90
25825;DHT22;13658;44.534;18.694;2024-01-30T03:32:06;-3.60;99.90
25825;DHT22;13658;44.534;18.694;2024-01-30T03:34:44;-3.60;99.90
25825;DHT22;13658;44.534;18.694;2024-01-30T03:37:10;-3.70;99.90
25825;DHT22;13658;44.534;18.694;2024-01-30T03:39:39;-3.60;99.90
25825;DHT22;13658;44.534;18.694;2024-01-30T03:42:08;-3.60;99.90
25825;DHT22;13658;44.534;18.694;2024-01-30T03:44:37;-3.50;99.90
25825;DHT22;13658;44.534;18.694;2024-01-30T03:47:06;-3.60;99.90
25825;DHT22;13658;44.534;18.694;2024-01-30T03:49:35;-3.50;99.90
25825;DHT22;13658;44.534;18.694;2024-01-30T03:52:04;-3.60;99.90
25825;DHT22;13658;44.534;18.694;2024-01-30T03:54:33;-3.70;99.90
25825;DHT22;13658;44.534;18.694;2024-01-30T03:57:02;-3.80;99.90
25825;DHT22;13658;44.534;18.694;2024-01-30T03:59:31;-3.90;99.90
25825;DHT22;13658;44.534;18.694;2024-01-30T04:02:03;-4.00;99.90
25825;DHT22;13658;44.534;18.694;2024-01-30T04:04:32;-3.90;99.90
25825;DHT22;13658;44.534;18.694;2024-01-30T04:07:02;-3.90;99.90
25825;DHT22;13658;44.534;18.694;2024-01-30T04:09:30;-4.00;99.90
25825;DHT22;13658;44.534;18.694;2024-01-30T04:12:07;-4.00;99.90
25825;DHT22;13658;44.534;18.694;2024-01-30T04:14:38;-4.00;99.90
25825;DHT22;13658;44.534;18.694;2024-01-30T04:17:05;-4.10;99.90
25825;DHT22;13658;44.534;18.694;2024-01-30T04:19:37;-3.90;99.90
25825;DHT22;13658;44.534;18.694;2024-01-30T04:22:04;-3.90;99.90
25825;DHT22;13658;44.534;18.694;2024-01-30T04:24:33;-4.00;99.90
25825;DHT22;13658;44.534;18.694;2024-01-30T04:27:02;-4.00;99.90
25825;DHT22;13658;44.534;18.694;2024-01-30T04:29:31;-4.10;99.90
25825;DHT22;13658;44.534;18.694;2024-01-30T04:31:58;-4.10;99.90
25825;DHT22;13658;44.534;18.694;2024-01-30T04:34:24;-4.00;99.90
25825;DHT22;13658;44.534;18.694;2024-01-30T04:36:53;-3.80;99.90
25825;DHT22;13658;44.534;18.694;2024-01-30T04:39:37;-3.90;99.90
25825;DHT22;13658;44.534;18.694;2024-01-30T04:42:06;-3.80;99.90
25825;DHT22;13658;44.534;18.694;2024-01-30T04:44:35;-3.70;99.90
25825;DHT22;13658;44.534;18.694;2024-01-30T04:47:04;-3.80;99.90
25825;DHT22;13658;44.534;18.694;2024-01-30T04:49:34;-3.90;99.90
25825;DHT22;13658;44.534;18.694;2024-01-30T04:52:01;-4.00;99.90
25825;DHT22;13658;44.534;18.694;2024-01-30T04:54:33;-4.10;99.90
25825;DHT22;13658;44.534;18.694;2024-01-30T04:57:03;-4.10;99.90
25825;DHT22;13658;44.534;18.694;2024-01-30T04:59:32;-3.90;99.90
25825;DHT22;13658;44.534;18.694;2024-01-30T05:02:01;-3.90;99.90
25825;DHT22;13658;44.534;18.694;2024-01-30T05:04:27;-3.90;99.90
25825;DHT22;13658;44.534;18.694;2024-01-30T05:06:55;-3.80;99.90
25825;DHT22;13658;44.534;18.694;2024-01-30T05:09:21;-3.80;99.90
25825;DHT22;13658;44.534;18.694;2024-01-30T05:11:50;-3.80;99.90
25825;DHT22;13658;44.534;18.694;2024-01-30T05:14:16;-3.80;99.90
25825;DHT22;13658;44.534;18.694;2024-01-30T05:16:46;-3.90;99.90
25825;DHT22;13658;44.534;18.694;2024-01-30T05:19:19;-4.10;99.90
25825;DHT22;13658;44.534;18.694;2024-01-30T05:21:49;-4.20;99.90
25825;DHT22;13658;44.534;18.694;2024-01-30T05:24:19;-4.30;99.90
25825;DHT22;13658;44.534;18.694;2024-01-30T05:26:44;-4.20;99.90
25825;DHT22;13658;44.534;18.694;2024-01-30T05:29:13;-4.30;99.90
25825;DHT22;13658;44.534;18.694;2024-01-30T05:31:39;-4.20;99.90
25825;DHT22;13658;44.534;18.694;2024-01-30T05:34:05;-4.20;99.90
25825;DHT22;13658;44.534;18.694;2024-01-30T05:36:35;-4.10;99.90
25825;DHT22;13658;44.534;18.694;2024-01-30T05:39:07;-4.20;99.90
25825;DHT22;13658;44.534;18.694;2024-01-30T05:41:36;-4.20;99.90
25825;DHT22;13658;44.534;18.694;2024-01-30T05:44:02;-4.20;99.90
25825;DHT22;13658;44.534;18.694;2024-01-30T05:46:31;-4.40;99.90
25825;DHT22;13658;44.534;18.694;2024-01-30T05:48:57;-4.50;99.90
25825;DHT22;13658;44.534;18.694;2024-01-30T05:51:32;-4.50;99.90
25825;DHT22;13658;44.534;18.694;2024-01-30T05:53:58;-4.50;99.90
25825;DHT22;13658;44.534;18.694;2024-01-30T05:56:24;-4.60;99.90
25825;DHT22;13658;44.534;18.694;2024-01-30T05:58:53;-4.70;99.90
25825;DHT22;13658;44.534;18.694;2024-01-30T06:01:19;-4.70;99.90
25825;DHT22;13658;44.534;18.694;2024-01-30T06:03:51;-4.70;99.90
25825;DHT22;13658;44.534;18.694;2024-01-30T06:06:35;-4.70;99.90
25825;DHT22;13658;44.534;18.694;2024-01-30T06:09:05;-4.70;99.90
25825;DHT22;13658;44.534;18.694;2024-01-30T06:11:31;-4.70;99.90
25825;DHT22;13658;44.534;18.694;2024-01-30T06:13:57;-4.70;99.90
25825;DHT22;13658;44.534;18.694;2024-01-30T06:16:35;-4.70;99.90
25825;DHT22;13658;44.534;18.694;2024-01-30T06:19:07;-4.70;99.90
25825;DHT22;13658;44.534;18.694;2024-01-30T06:21:39;-4.60;99.90
25825;DHT22;13658;44.534;18.694;2024-01-30T06:24:08;-4.60;99.90
25825;DHT22;13658;44.534;18.694;2024-01-30T06:26:34;-4.50;99.90
25825;DHT22;13658;44.534;18.694;2024-01-30T06:29:00;-4.50;99.90
25825;DHT22;13658;44.534;18.694;2024-01-30T06:31:26;-4.40;99.90
25825;DHT22;13658;44.534;18.694;2024-01-30T06:33:52;-4.30;99.90
25825;DHT22;13658;44.534;18.694;2024-01-30T06:36:18;-4.30;99.90
25825;DHT22;13658;44.534;18.694;2024-01-30T06:39:03;-4.40;99.90
25825;DHT22;13658;44.534;18.694;2024-01-30T06:41:30;-4.40;99.90
25825;DHT22;13658;44.534;18.694;2024-01-30T06:44:02;-4.40;99.90
25825;DHT22;13658;44.534;18.694;2024-01-30T06:46:33;-4.30;99.90
25825;DHT22;13658;44.534;18.694;2024-01-30T06:48:59;-4.30;99.90
25825;DHT22;13658;44.534;18.694;2024-01-30T06:51:25;-4.40;99.90
25825;DHT22;13658;44.534;18.694;2024-01-30T06:53:51;-4.30;99.90
25825;DHT22;13658;44.534;18.694;2024-01-30T06:56:17;-3.70;99.90
25825;DHT22;13658;44.534;18.694;2024-01-30T06:58:50;-2.70;99.90
25825;DHT22;13658;44.534;18.694;2024-01-30T07:01:16;-1.50;99.90
25825;DHT22;13658;44.534;18.694;2024-01-30T07:03:43;-0.80;99.90
25825;DHT22;13658;44.534;18.694;2024-01-30T07:06:09;-0.70;99.90
25825;DHT22;13658;44.534;18.694;2024-01-30T07:08:36;-1.50;99.90
25825;DHT22;13658;44.534;18.694;2024-01-30T07:11:07;-1.90;99.90
25825;DHT22;13658;44.534;18.694;2024-01-30T07:13:34;-2.10;99.90
25825;DHT22;13658;44.534;18.694;2024-01-30T07:16:00;-2.50;99.90
25825;DHT22;13658;44.534;18.694;2024-01-30T07:18:26;-2.70;99.90
25825;DHT22;13658;44.534;18.694;2024-01-30T07:20:52;-2.60;99.90
25825;DHT22;13658;44.534;18.694;2024-01-30T07:23:18;-2.70;99.90
25825;DHT22;13658;44.534;18.694;2024-01-30T07:25:44;-2.80;99.90
25825;DHT22;13658;44.534;18.694;2024-01-30T07:28:17;-2.90;99.90
25825;DHT22;13658;44.534;18.694;2024-01-30T07:30:43;-2.90;99.90
25825;DHT22;13658;44.534;18.694;2024-01-30T07:33:09;-2.90;99.90
25825;DHT22;13658;44.534;18.694;2024-01-30T07:35:36;-2.90;99.90
25825;DHT22;13658;44.534;18.694;2024-01-30T07:38:02;-2.70;99.90
25825;DHT22;13658;44.534;18.694;2024-01-30T07:40:28;-2.60;99.90
25825;DHT22;13658;44.534;18.694;2024-01-30T07:42:54;-2.50;99.90
25825;DHT22;13658;44.534;18.694;2024-01-30T07:45:20;-2.30;99.90
25825;DHT22;13658;44.534;18.694;2024-01-30T07:47:54;-2.30;99.90
25825;DHT22;13658;44.534;18.694;2024-01-30T07:50:20;-2.20;99.90
25825;DHT22;13658;44.534;18.694;2024-01-30T07:52:46;-2.20;99.90
25825;DHT22;13658;44.534;18.694;2024-01-30T07:55:14;-2.10;99.90
25825;DHT22;13658;44.534;18.694;2024-01-30T07:57:40;-2.00;99.90
25825;DHT22;13658;44.534;18.694;2024-01-30T08:00:09;-1.90;99.90
25825;DHT22;13658;44.534;18.694;2024-01-30T08:02:35;-1.80;99.90
25825;DHT22;13658;44.534;18.694;2024-01-30T08:05:01;-1.60;99.90
25825;DHT22;13658;44.534;18.694;2024-01-30T08:07:36;-1.60;99.90
25825;DHT22;13658;44.534;18.694;2024-01-30T08:10:02;-1.50;99.90
25825;DHT22;13658;44.534;18.694;2024-01-30T08:12:44;-1.30;99.90
25825;DHT22;13658;44.534;18.694;2024-01-30T08:15:11;-1.20;99.90
25825;DHT22;13658;44.534;18.694;2024-01-30T08:17:37;-1.00;99.90
25825;DHT22;13658;44.534;18.694;2024-01-30T08:20:13;-0.90;99.90
25825;DHT22;13658;44.534;18.694;2024-01-30T08:22:39;-0.40;99.90
25825;DHT22;13658;44.534;18.694;2024-01-30T08:25:09;1.30;99.90
25825;DHT22;13658;44.534;18.694;2024-01-30T08:27:35;3.40;99.90
25825;DHT22;13658;44.534;18.694;2024-01-30T08:30:05;5.80;99.90
25825;DHT22;13658;44.534;18.694;2024-01-30T08:32:32;7.30;99.90
25825;DHT22;13658;44.534;18.694;2024-01-30T08:34:58;9.00;99.90
25825;DHT22;13658;44.534;18.694;2024-01-30T08:37:33;9.20;99.90
25825;DHT22;13658;44.534;18.694;2024-01-30T08:40:03;10.00;99.90
25825;DHT22;13658;44.534;18.694;2024-01-30T08:42:30;11.50;99.90
25825;DHT22;13658;44.534;18.694;2024-01-30T08:44:56;12.50;99.90
25825;DHT22;13658;44.534;18.694;2024-01-30T08:47:30;11.80;99.90
25825;DHT22;13658;44.534;18.694;2024-01-30T08:49:57;12.10;99.90
25825;DHT22;13658;44.534;18.694;2024-01-30T08:52:22;12.90;99.90
25825;DHT22;13658;44.534;18.694;2024-01-30T08:54:51;13.50;99.90
25825;DHT22;13658;44.534;18.694;2024-01-30T08:57:17;14.20;99.90
25825;DHT22;13658;44.534;18.694;2024-01-30T08:59:52;14.90;99.90
25825;DHT22;13658;44.534;18.694;2024-01-30T09:02:18;15.80;99.90
25825;DHT22;13658;44.534;18.694;2024-01-30T09:04:47;14.40;99.90
25825;DHT22;13658;44.534;18.694;2024-01-30T09:07:13;15.20;99.90
25825;DHT22;13658;44.534;18.694;2024-01-30T09:09:40;14.30;99.90
25825;DHT22;13658;44.534;18.694;2024-01-30T09:12:08;14.80;99.90
25825;DHT22;13658;44.534;18.694;2024-01-30T09:14:40;14.30;99.90
25825;DHT22;13658;44.534;18.694;2024-01-30T09:17:07;15.30;99.90
25825;DHT22;13658;44.534;18.694;2024-01-30T09:19:36;15.80;99.90
25825;DHT22;13658;44.534;18.694;2024-01-30T09:22:02;15.40;99.90
25825;DHT22;13658;44.534;18.694;2024-01-30T09:24:28;15.10;99.90
25825;DHT22;13658;44.534;18.694;2024-01-30T09:26:54;15.10;99.90
25825;DHT22;13658;44.534;18.694;2024-01-30T09:29:29;13.80;99.90
25825;DHT22;13658;44.534;18.694;2024-01-30T09:31:55;15.00;99.90
25825;DHT22;13658;44.534;18.694;2024-01-30T09:34:24;14.90;99.90
25825;DHT22;13658;44.534;18.694;2024-01-30T09:36:50;16.30;99.90
25825;DHT22;13658;44.534;18.694;2024-01-30T09:39:19;16.70;99.90
25825;DHT22;13658;44.534;18.694;2024-01-30T09:41:51;15.90;99.90
25825;DHT22;13658;44.534;18.694;2024-01-30T09:44:20;16.40;99.90
25825;DHT22;13658;44.534;18.694;2024-01-30T09:46:47;17.20;99.90
25825;DHT22;13658;44.534;18.694;2024-01-30T09:49:35;16.90;99.90
25825;DHT22;13658;44.534;18.694;2024-01-30T09:52:05;16.00;99.90
25825;DHT22;13658;44.534;18.694;2024-01-30T09:54:35;16.00;99.90
25825;DHT22;13658;44.534;18.694;2024-01-30T09:57:01;15.70;99.90
25825;DHT22;13658;44.534;18.694;2024-01-30T09:59:30;16.90;99.90
25825;DHT22;13658;44.534;18.694;2024-01-30T10:01:57;18.00;99.90
25825;DHT22;13658;44.534;18.694;2024-01-30T10:04:23;18.60;99.90
25825;DHT22;13658;44.534;18.694;2024-01-30T10:06:50;16.50;99.90
25825;DHT22;13658;44.534;18.694;2024-01-30T10:09:25;15.00;99.90
25825;DHT22;13658;44.534;18.694;2024-01-30T10:11:51;14.70;99.90
25825;DHT22;13658;44.534;18.694;2024-01-30T10:14:33;15.30;99.90
25825;DHT22;13658;44.534;18.694;2024-01-30T10:16:59;15.50;99.90
25825;DHT22;13658;44.534;18.694;2024-01-30T10:19:34;15.40;99.90
25825;DHT22;13658;44.534;18.694;2024-01-30T10:22:03;15.30;99.90
25825;DHT22;13658;44.534;18.694;2024-01-30T10:24:29;15.00;99.90
25825;DHT22;13658;44.534;18.694;2024-01-30T10:26:55;15.40;99.90
25825;DHT22;13658;44.534;18.694;2024-01-30T10:29:37;16.20;99.90
25825;DHT22;13658;44.534;18.694;2024-01-30T10:32:04;15.90;99.90
25825;DHT22;13658;44.534;18.694;2024-01-30T10:34:31;16.80;99.90
25825;DHT22;13658;44.534;18.694;2024-01-30T10:37:06;16.50;99.90
25825;DHT22;13658;44.534;18.694;2024-01-30T10:39:39;16.60;99.90
25825;DHT22;13658;44.534;18.694;2024-01-30T10:42:07;16.50;99.90
25825;DHT22;13658;44.534;18.694;2024-01-30T10:45:02;16.40;99.90
25825;DHT22;13658;44.534;18.694;2024-01-30T10:47:35;15.20;99.90
25825;DHT22;13658;44.534;18.694;2024-01-30T10:50:08;15.70;99.90
25825;DHT22;13658;44.534;18.694;2024-01-30T10:52:39;15.80;99.90
25825;DHT22;13658;44.534;18.694;2024-01-30T10:55:08;15.40;99.90
25825;DHT22;13658;44.534;18.694;2024-01-30T10:57:34;15.50;99.90
25825;DHT22;13658;44.534;18.694;2024-01-30T11:00:04;15.50;99.90
25825;DHT22;13658;44.534;18.694;2024-01-30T11:02:38;15.80;99.90
25825;DHT22;13658;44.534;18.694;2024-01-30T11:05:12;16.10;99.90
25825;DHT22;13658;44.534;18.694;2024-01-30T11:07:39;15.50;99.90
25825;DHT22;13658;44.534;18.694;2024-01-30T11:10:11;17.00;99.90
25825;DHT22;13658;44.534;18.694;2024-01-30T11:12:46;16.80;99.90
25825;DHT22;13658;44.534;18.694;2024-01-30T11:15:14;16.60;99.90
25825;DHT22;13658;44.534;18.694;2024-01-30T11:17:50;15.30;99.90
25825;DHT22;13658;44.534;18.694;2024-01-30T11:20:35;13.80;99.90
25825;DHT22;13658;44.534;18.694;2024-01-30T11:23:08;12.20;99.90
25825;DHT22;13658;44.534;18.694;2024-01-30T11:25:40;11.50;99.90
25825;DHT22;13658;44.534;18.694;2024-01-30T11:28:13;10.80;99.90
25825;DHT22;13658;44.534;18.694;2024-01-30T11:30:41;10.00;99.90
25825;DHT22;13658;44.534;18.694;2024-01-30T11:33:11;9.90;99.90
25825;DHT22;13658;44.534;18.694;2024-01-30T11:35:50;9.80;99.90
25825;DHT22;13658;44.534;18.694;2024-01-30T11:38:16;9.70;99.90
25825;DHT22;13658;44.534;18.694;2024-01-30T11:40:43;9.50;99.90
25825;DHT22;13658;44.534;18.694;2024-01-30T11:43:09;9.40;99.90
25825;DHT22;13658;44.534;18.694;2024-01-30T11:45:45;9.30;99.90
25825;DHT22;13658;44.534;18.694;2024-01-30T11:48:14;9.10;99.90
25825;DHT22;13658;44.534;18.694;2024-01-30T11:50:44;9.10;99.90
25825;DHT22;13658;44.534;18.694;2024-01-30T11:53:13;8.70;99.90
25825;DHT22;13658;44.534;18.694;2024-01-30T11:55:39;8.50;99.90
25825;DHT22;13658;44.534;18.694;2024-01-30T11:58:14;8.60;99.90
25825;DHT22;13658;44.534;18.694;2024-01-30T12:00:40;8.80;99.90
25825;DHT22;13658;44.534;18.694;2024-01-30T12:03:06;8.60;99.90
25825;DHT22;13658;44.534;18.694;2024-01-30T12:05:35;8.50;99.90
25825;DHT22;13658;44.534;18.694;2024-01-30T12:08:02;8.50;99.90
25825;DHT22;13658;44.534;18.694;2024-01-30T12:10:28;8.50;99.90
25825;DHT22;13658;44.534;18.694;2024-01-30T12:12:57;8.60;99.90
25825;DHT22;13658;44.534;18.694;2024-01-30T12:15:24;8.70;99.90
25825;DHT22;13658;44.534;18.694;2024-01-30T12:17:50;8.70;99.90
25825;DHT22;13658;44.534;18.694;2024-01-30T12:20:20;8.50;99.90
25825;DHT22;13658;44.534;18.694;2024-01-30T12:22:53;8.30;99.90
25825;DHT22;13658;44.534;18.694;2024-01-30T12:25:20;8.50;99.90
25825;DHT22;13658;44.534;18.694;2024-01-30T12:28:01;8.40;99.90
25825;DHT22;13658;44.534;18.694;2024-01-30T12:30:28;8.60;99.90
25825;DHT22;13658;44.534;18.694;2024-01-30T12:32:54;8.50;99.90
25825;DHT22;13658;44.534;18.694;2024-01-30T12:35:23;8.40;99.90
25825;DHT22;13658;44.534;18.694;2024-01-30T12:37:49;8.40;99.90
25825;DHT22;13658;44.534;18.694;2024-01-30T12:40:16;8.40;99.90
25825;DHT22;13658;44.534;18.694;2024-01-30T12:42:48;8.40;99.90
25825;DHT22;13658;44.534;18.694;2024-01-30T12:45:18;8.50;99.90
25825;DHT22;13658;44.534;18.694;2024-01-30T12:47:47;8.60;99.90
25825;DHT22;13658;44.534;18.694;2024-01-30T12:50:13;8.60;99.90
25825;DHT22;13658;44.534;18.694;2024-01-30T12:52:42;8.60;99.90
25825;DHT22;13658;44.534;18.694;2024-01-30T12:55:17;8.40;99.90
25825;DHT22;13658;44.534;18.694;2024-01-30T12:57:43;8.60;99.90
25825;DHT22;13658;44.534;18.694;2024-01-30T13:00:12;8.70;99.90
25825;DHT22;13658;44.534;18.694;2024-01-30T13:02:41;8.60;99.90
25825;DHT22;13658;44.534;18.694;2024-01-30T13:05:13;8.70;99.90
25825;DHT22;13658;44.534;18.694;2024-01-30T13:07:42;8.50;99.90
25825;DHT22;13658;44.534;18.694;2024-01-30T13:10:09;8.50;99.90
25825;DHT22;13658;44.534;18.694;2024-01-30T13:12:38;8.50;99.90
25825;DHT22;13658;44.534;18.694;2024-01-30T13:15:04;8.50;99.90
25825;DHT22;13658;44.534;18.694;2024-01-30T13:17:31;8.50;99.90
25825;DHT22;13658;44.534;18.694;2024-01-30T13:20:00;8.50;99.90
25825;DHT22;13658;44.534;18.694;2024-01-30T13:22:29;8.60;99.90
25825;DHT22;13658;44.534;18.694;2024-01-30T13:24:55;8.40;99.90
25825;DHT22;13658;44.534;18.694;2024-01-30T13:27:43;8.30;99.90
25825;DHT22;13658;44.534;18.694;2024-01-30T13:30:09;8.30;99.90
25825;DHT22;13658;44.534;18.694;2024-01-30T13:32:36;8.40;99.90
25825;DHT22;13658;44.534;18.694;2024-01-30T13:35:05;8.40;99.90
25825;DHT22;13658;44.534;18.694;2024-01-30T13:37:31;8.40;99.90
25825;DHT22;13658;44.534;18.694;2024-01-30T13:40:00;8.30;99.90
25825;DHT22;13658;44.534;18.694;2024-01-30T13:42:26;8.30;99.90
25825;DHT22;13658;44.534;18.694;2024-01-30T13:44:55;8.30;99.90
25825;DHT22;13658;44.534;18.694;2024-01-30T13:47:21;8.30;99.90
25825;DHT22;13658;44.534;18.694;2024-01-30T13:49:50;8.30;99.90
25825;DHT22;13658;44.534;18.694;2024-01-30T13:52:27;8.30;99.90
25825;DHT22;13658;44.534;18.694;2024-01-30T13:54:56;8.40;99.90
25825;DHT22;13658;44.534;18.694;2024-01-30T13:57:22;8.40;99.90
25825;DHT22;13658;44.534;18.694;2024-01-30T13:59:52;8.40;99.90
25825;DHT22;13658;44.534;18.694;2024-01-30T14:02:18;8.40;99.90
25825;DHT22;13658;44.534;18.694;2024-01-30T14:04:46;8.40;99.90
25825;DHT22;13658;44.534;18.694;2024-01-30T14:07:12;8.40;99.90
25825;DHT22;13658;44.534;18.694;2024-01-30T14:09:48;8.40;99.90
25825;DHT22;13658;44.534;18.694;2024-01-30T14:12:14;8.50;99.90
25825;DHT22;13658;44.534;18.694;2024-01-30T14:14:41;8.50;99.90
25825;DHT22;13658;44.534;18.694;2024-01-30T14:17:10;8.70;99.90
25825;DHT22;13658;44.534;18.694;2024-01-30T14:19:36;8.70;99.90
25825;DHT22;13658;44.534;18.694;2024-01-30T14:22:05;8.60;99.90
25825;DHT22;13658;44.534;18.694;2024-01-30T14:24:32;8.60;99.90
25825;DHT22;13658;44.534;18.694;2024-01-30T14:26:58;8.60;99.90
25825;DHT22;13658;44.534;18.694;2024-01-30T14:29:34;8.60;99.90
25825;DHT22;13658;44.534;18.694;2024-01-30T14:32:00;8.80;99.90
25825;DHT22;13658;44.534;18.694;2024-01-30T14:34:28;8.80;99.90
25825;DHT22;13658;44.534;18.694;2024-01-30T14:36:57;8.90;99.90
25825;DHT22;13658;44.534;18.694;2024-01-30T14:39:26;8.80;99.90
25825;DHT22;13658;44.534;18.694;2024-01-30T14:41:52;8.70;99.90
25825;DHT22;13658;44.534;18.694;2024-01-30T14:44:21;8.60;99.90
25825;DHT22;13658;44.534;18.694;2024-01-30T14:46:51;8.50;99.90
25825;DHT22;13658;44.534;18.694;2024-01-30T14:49:17;8.40;99.90
25825;DHT22;13658;44.534;18.694;2024-01-30T14:51:46;8.30;99.90
25825;DHT22;13658;44.534;18.694;2024-01-30T14:54:21;8.30;99.90
25825;DHT22;13658;44.534;18.694;2024-01-30T14:56:47;8.20;99.90
25825;DHT22;13658;44.534;18.694;2024-01-30T14:59:16;8.20;99.90
25825;DHT22;13658;44.534;18.694;2024-01-30T15:01:45;8.10;99.90
25825;DHT22;13658;44.534;18.694;2024-01-30T15:04:12;8.10;99.90
25825;DHT22;13658;44.534;18.694;2024-01-30T15:06:41;8.00;99.90
25825;DHT22;13658;44.534;18.694;2024-01-30T15:09:14;8.00;99.90
25825;DHT22;13658;44.534;18.694;2024-01-30T15:11:44;7.90;99.90
25825;DHT22;13658;44.534;18.694;2024-01-30T15:14:11;7.90;99.90
25825;DHT22;13658;44.534;18.694;2024-01-30T15:16:40;7.80;99.90
25825;DHT22;13658;44.534;18.694;2024-01-30T15:19:09;7.70;99.90
25825;DHT22;13658;44.534;18.694;2024-01-30T15:21:35;7.60;99.90
25825;DHT22;13658;44.534;18.694;2024-01-30T15:24:05;7.40;99.90
25825;DHT22;13658;44.534;18.694;2024-01-30T15:26:34;7.30;99.90
25825;DHT22;13658;44.534;18.694;2024-01-30T15:29:15;7.20;99.90
25825;DHT22;13658;44.534;18.694;2024-01-30T15:31:41;7.10;99.90